sensor_id;sensor_type;location;lat;lon;timestamp;pressure;altitude;pressure_sealevel;temperature;humidity
72921;BME280;61064;51.654;5.476;2023-04-24T00:02:11;100014.81;;;10.24;85.19
72921;BME280;61064;51.654;5.476;2023-04-24T00:04:38;100009.50;;;10.24;85.35
72921;BME280;61064;51.654;5.476;2023-04-24T00:07:06;100003.28;;;10.22;85.15
72921;BME280;61064;51.654;5.476;2023-04-24T00:09:33;100009.50;;;10.21;85.24
72921;BME280;61064;51.654;5.476;2023-04-24T00:11:58;99996.22;;;10.18;85.63
72921;BME280;61064;51.654;5.476;2023-04-24T00:14:24;100002.41;;;10.23;85.49
72921;BME280;61064;51.654;5.476;2023-04-24T00:16:50;100007.72;;;10.21;85.43
72921;BME280;61064;51.654;5.476;2023-04-24T00:19:15;100008.59;;;10.20;85.44
72921;BME280;61064;51.654;5.476;2023-04-24T00:21:41;100005.06;;;10.23;85.60
72921;BME280;61064;51.654;5.476;2023-04-24T00:24:07;100016.56;;;10.20;85.61
72921;BME280;61064;51.654;5.476;2023-04-24T00:26:34;100004.22;;;10.16;85.52
72921;BME280;61064;51.654;5.476;2023-04-24T00:28:59;100007.72;;;10.20;85.92
72921;BME280;61064;51.654;5.476;2023-04-24T00:31:25;100017.47;;;10.21;85.95
72921;BME280;61064;51.654;5.476;2023-04-24T00:33:50;100016.56;;;10.20;85.67
72921;BME280;61064;51.654;5.476;2023-04-24T00:36:16;100013.91;;;10.22;85.95
72921;BME280;61064;51.654;5.476;2023-04-24T00:38:41;100013.03;;;10.20;85.67
72921;BME280;61064;51.654;5.476;2023-04-24T00:41:07;100013.91;;;10.20;85.70
72921;BME280;61064;51.654;5.476;2023-04-24T00:43:32;100025.47;;;10.19;86.03
72921;BME280;61064;51.654;5.476;2023-04-24T00:45:58;100021.03;;;10.17;85.88
72921;BME280;61064;51.654;5.476;2023-04-24T00:48:24;100025.47;;;10.18;85.95
72921;BME280;61064;51.654;5.476;2023-04-24T00:50:50;100023.69;;;10.17;86.14
72921;BME280;61064;51.654;5.476;2023-04-24T00:53:16;100021.88;;;10.14;86.10
72921;BME280;61064;51.654;5.476;2023-04-24T00:55:41;100029.00;;;10.17;85.86
72921;BME280;61064;51.654;5.476;2023-04-24T00:58:07;100027.25;;;10.11;86.22
72921;BME280;61064;51.654;5.476;2023-04-24T01:00:33;100024.56;;;10.11;86.26
72921;BME280;61064;51.654;5.476;2023-04-24T01:03:01;100029.91;;;10.11;86.09
72921;BME280;61064;51.654;5.476;2023-04-24T01:05:29;100035.25;;;10.08;86.16
72921;BME280;61064;51.654;5.476;2023-04-24T01:07:55;100034.34;;;10.08;86.29
72921;BME280;61064;51.654;5.476;2023-04-24T01:10:21;100020.16;;;10.09;86.43
72921;BME280;61064;51.654;5.476;2023-04-24T01:12:48;100017.53;;;10.06;86.33
72921;BME280;61064;51.654;5.476;2023-04-24T01:15:13;100020.19;;;10.07;86.48
72921;BME280;61064;51.654;5.476;2023-04-24T01:17:38;100017.53;;;10.01;86.39
72921;BME280;61064;51.654;5.476;2023-04-24T01:20:04;100014.88;;;10.01;86.43
72921;BME280;61064;51.654;5.476;2023-04-24T01:22:33;100022.84;;;10.04;86.94
72921;BME280;61064;51.654;5.476;2023-04-24T01:24:58;100023.75;;;10.01;86.92
72921;BME280;61064;51.654;5.476;2023-04-24T01:27:24;100016.66;;;9.99;87.00
72921;BME280;61064;51.654;5.476;2023-04-24T01:29:49;100015.78;;;9.98;87.13
72921;BME280;61064;51.654;5.476;2023-04-24T01:32:17;100022.00;;;9.93;87.25
72921;BME280;61064;51.654;5.476;2023-04-24T01:34:42;100029.97;;;9.93;87.21
72921;BME280;61064;51.654;5.476;2023-04-24T01:37:08;100027.34;;;9.90;87.31
72921;BME280;61064;51.654;5.476;2023-04-24T01:39:36;100029.09;;;9.89;87.66
72921;BME280;61064;51.654;5.476;2023-04-24T01:42:02;100026.44;;;9.88;87.79
72921;BME280;61064;51.654;5.476;2023-04-24T01:44:27;100024.69;;;9.84;87.76
72921;BME280;61064;51.654;5.476;2023-04-24T01:46:54;100037.09;;;9.85;87.88
72921;BME280;61064;51.654;5.476;2023-04-24T01:49:20;100025.59;;;9.81;87.96
72921;BME280;61064;51.654;5.476;2023-04-24T01:51:46;100018.56;;;9.74;88.08
72921;BME280;61064;51.654;5.476;2023-04-24T01:54:12;100024.75;;;9.75;87.96
72921;BME280;61064;51.654;5.476;2023-04-24T01:56:41;100026.50;;;9.77;88.08
72921;BME280;61064;51.654;5.476;2023-04-24T01:59:12;100030.91;;;9.77;88.19
72921;BME280;61064;51.654;5.476;2023-04-24T02:01:38;100019.44;;;9.69;88.13
72921;BME280;61064;51.654;5.476;2023-04-24T02:04:05;100026.50;;;9.71;88.01
72921;BME280;61064;51.654;5.476;2023-04-24T02:06:31;100024.72;;;9.70;88.40
72921;BME280;61064;51.654;5.476;2023-04-24T02:08:57;100010.63;;;9.64;88.20
72921;BME280;61064;51.654;5.476;2023-04-24T02:11:23;100022.97;;;9.66;88.51
72921;BME280;61064;51.654;5.476;2023-04-24T02:13:48;100025.66;;;9.68;88.54
72921;BME280;61064;51.654;5.476;2023-04-24T02:16:15;100033.59;;;9.65;88.46
72921;BME280;61064;51.654;5.476;2023-04-24T02:18:40;100029.22;;;9.64;88.71
72921;BME280;61064;51.654;5.476;2023-04-24T02:21:09;100016.81;;;9.53;88.68
72921;BME280;61064;51.654;5.476;2023-04-24T02:23:35;100033.63;;;9.63;88.62
72921;BME280;61064;51.654;5.476;2023-04-24T02:26:00;100022.13;;;9.59;88.51
72921;BME280;61064;51.654;5.476;2023-04-24T02:28:25;100029.19;;;9.60;88.62
72921;BME280;61064;51.654;5.476;2023-04-24T02:30:51;100028.31;;;9.60;88.48
72921;BME280;61064;51.654;5.476;2023-04-24T02:33:16;100028.31;;;9.60;88.40
72921;BME280;61064;51.654;5.476;2023-04-24T02:35:41;100026.56;;;9.53;88.66
72921;BME280;61064;51.654;5.476;2023-04-24T02:38:07;100030.09;;;9.55;88.47
72921;BME280;61064;51.654;5.476;2023-04-24T02:40:32;100025.66;;;9.54;88.71
72921;BME280;61064;51.654;5.476;2023-04-24T02:42:57;100027.47;;;9.58;88.47
72921;BME280;61064;51.654;5.476;2023-04-24T02:45:23;100018.63;;;9.51;88.40
72921;BME280;61064;51.654;5.476;2023-04-24T02:47:48;100019.47;;;9.53;88.84
72921;BME280;61064;51.654;5.476;2023-04-24T02:50:13;100023.00;;;9.54;88.60
72921;BME280;61064;51.654;5.476;2023-04-24T02:52:39;100022.16;;;9.52;88.47
72921;BME280;61064;51.654;5.476;2023-04-24T02:55:05;100028.34;;;9.52;88.58
72921;BME280;61064;51.654;5.476;2023-04-24T02:57:33;100004.47;;;9.43;88.58
72921;BME280;61064;51.654;5.476;2023-04-24T03:00:02;100025.69;;;9.51;88.54
72921;BME280;61064;51.654;5.476;2023-04-24T03:02:28;100009.78;;;9.46;88.57
72921;BME280;61064;51.654;5.476;2023-04-24T03:04:53;100006.25;;;9.41;88.49
72921;BME280;61064;51.654;5.476;2023-04-24T03:07:18;100020.41;;;9.45;88.39
72921;BME280;61064;51.654;5.476;2023-04-24T03:09:46;100022.16;;;9.44;88.59
72921;BME280;61064;51.654;5.476;2023-04-24T03:12:11;100018.63;;;9.42;88.58
72921;BME280;61064;51.654;5.476;2023-04-24T03:14:36;100026.59;;;9.42;88.39
72921;BME280;61064;51.654;5.476;2023-04-24T03:17:02;100021.31;;;9.41;88.41
72921;BME280;61064;51.654;5.476;2023-04-24T03:19:27;100014.22;;;9.35;88.41
72921;BME280;61064;51.654;5.476;2023-04-24T03:21:52;100017.75;;;9.40;88.47
72921;BME280;61064;51.654;5.476;2023-04-24T03:24:18;100016.00;;;9.35;88.54
72921;BME280;61064;51.654;5.476;2023-04-24T03:26:43;100019.53;;;9.38;88.54
72921;BME280;61064;51.654;5.476;2023-04-24T03:29:08;100013.31;;;9.38;88.61
72921;BME280;61064;51.654;5.476;2023-04-24T03:31:33;100019.50;;;9.37;88.47
72921;BME280;61064;51.654;5.476;2023-04-24T03:33:59;100008.03;;;9.33;88.46
72921;BME280;61064;51.654;5.476;2023-04-24T03:36:24;100024.81;;;9.38;88.54
72921;BME280;61064;51.654;5.476;2023-04-24T03:38:51;100020.41;;;9.37;88.26
72921;BME280;61064;51.654;5.476;2023-04-24T03:41:16;100011.56;;;9.32;88.30
72921;BME280;61064;51.654;5.476;2023-04-24T03:43:41;100008.03;;;9.33;88.33
72921;BME280;61064;51.654;5.476;2023-04-24T03:46:07;100000.97;;;9.29;88.17
72921;BME280;61064;51.654;5.476;2023-04-24T03:48:34;100014.22;;;9.34;88.26
72921;BME280;61064;51.654;5.476;2023-04-24T03:50:59;100008.03;;;9.33;88.18
72921;BME280;61064;51.654;5.476;2023-04-24T03:53:25;100010.69;;;9.33;88.21
72921;BME280;61064;51.654;5.476;2023-04-24T03:55:52;100004.50;;;9.34;88.32
72921;BME280;61064;51.654;5.476;2023-04-24T03:58:18;100005.38;;;9.32;88.41
72921;BME280;61064;51.654;5.476;2023-04-24T04:00:43;100014.22;;;9.32;88.06
72921;BME280;61064;51.654;5.476;2023-04-24T04:03:09;100015.09;;;9.33;88.24
72921;BME280;61064;51.654;5.476;2023-04-24T04:05:34;100004.50;;;9.27;88.03
72921;BME280;61064;51.654;5.476;2023-04-24T04:08:00;100008.91;;;9.31;87.80
72921;BME280;61064;51.654;5.476;2023-04-24T04:10:25;100009.78;;;9.31;88.14
72921;BME280;61064;51.654;5.476;2023-04-24T04:12:51;99992.13;;;9.27;88.16
72921;BME280;61064;51.654;5.476;2023-04-24T04:15:16;100006.25;;;9.34;88.01
72921;BME280;61064;51.654;5.476;2023-04-24T04:17:41;99992.13;;;9.27;87.74
72921;BME280;61064;51.654;5.476;2023-04-24T04:20:07;99991.22;;;9.25;88.11
72921;BME280;61064;51.654;5.476;2023-04-24T04:22:35;100003.63;;;9.29;88.19
72921;BME280;61064;51.654;5.476;2023-04-24T04:25:01;100008.03;;;9.29;88.19
72921;BME280;61064;51.654;5.476;2023-04-24T04:27:26;100016.00;;;9.27;88.08
72921;BME280;61064;51.654;5.476;2023-04-24T04:29:53;100016.00;;;9.27;88.33
72921;BME280;61064;51.654;5.476;2023-04-24T04:32:19;100016.00;;;9.27;88.10
72921;BME280;61064;51.654;5.476;2023-04-24T04:34:44;100007.16;;;9.25;88.36
72921;BME280;61064;51.654;5.476;2023-04-24T04:37:10;100002.75;;;9.16;88.36
72921;BME280;61064;51.654;5.476;2023-04-24T04:39:37;100019.56;;;9.22;88.43
72921;BME280;61064;51.654;5.476;2023-04-24T04:42:03;100019.56;;;9.23;88.56
72921;BME280;61064;51.654;5.476;2023-04-24T04:44:28;100027.50;;;9.22;88.66
72921;BME280;61064;51.654;5.476;2023-04-24T04:46:56;100019.53;;;9.20;88.61
72921;BME280;61064;51.654;5.476;2023-04-24T04:49:22;100031.94;;;9.18;88.50
72921;BME280;61064;51.654;5.476;2023-04-24T04:51:48;100029.28;;;9.18;88.47
72921;BME280;61064;51.654;5.476;2023-04-24T04:54:14;100037.25;;;9.18;88.50
72921;BME280;61064;51.654;5.476;2023-04-24T04:56:40;100041.69;;;9.17;88.67
72921;BME280;61064;51.654;5.476;2023-04-24T04:59:09;100038.13;;;9.14;88.82
72921;BME280;61064;51.654;5.476;2023-04-24T05:01:34;100043.44;;;9.15;88.93
72921;BME280;61064;51.654;5.476;2023-04-24T05:03:59;100049.66;;;9.13;88.90
72921;BME280;61064;51.654;5.476;2023-04-24T05:06:25;100046.97;;;9.14;88.95
72921;BME280;61064;51.654;5.476;2023-04-24T05:08:51;100052.28;;;9.19;88.69
72921;BME280;61064;51.654;5.476;2023-04-24T05:11:16;100051.41;;;9.18;89.07
72921;BME280;61064;51.654;5.476;2023-04-24T05:13:41;100051.41;;;9.18;89.21
72921;BME280;61064;51.654;5.476;2023-04-24T05:16:07;100050.50;;;9.16;88.85
72921;BME280;61064;51.654;5.476;2023-04-24T05:18:32;100054.03;;;9.20;88.99
72921;BME280;61064;51.654;5.476;2023-04-24T05:20:57;100055.84;;;9.18;89.04
72921;BME280;61064;51.654;5.476;2023-04-24T05:23:23;100058.47;;;9.23;89.16
72921;BME280;61064;51.654;5.476;2023-04-24T05:25:48;100060.22;;;9.21;89.31
72921;BME280;61064;51.654;5.476;2023-04-24T05:28:13;100062.88;;;9.21;89.14
72921;BME280;61064;51.654;5.476;2023-04-24T05:30:39;100069.06;;;9.19;89.42
72921;BME280;61064;51.654;5.476;2023-04-24T05:33:04;100061.13;;;9.18;89.25
72921;BME280;61064;51.654;5.476;2023-04-24T05:35:30;100060.25;;;9.11;89.41
72921;BME280;61064;51.654;5.476;2023-04-24T05:37:56;100067.31;;;9.15;89.40
72921;BME280;61064;51.654;5.476;2023-04-24T05:40:21;100073.50;;;9.16;89.56
72921;BME280;61064;51.654;5.476;2023-04-24T05:42:47;100083.25;;;9.15;89.78
72921;BME280;61064;51.654;5.476;2023-04-24T05:45:12;100104.47;;;9.15;89.59
72921;BME280;61064;51.654;5.476;2023-04-24T05:47:42;100102.69;;;9.10;89.49
72921;BME280;61064;51.654;5.476;2023-04-24T05:50:09;100106.22;;;9.09;89.59
72921;BME280;61064;51.654;5.476;2023-04-24T05:52:34;100116.88;;;9.13;89.66
72921;BME280;61064;51.654;5.476;2023-04-24T05:55:00;100118.63;;;9.13;89.50
72921;BME280;61064;51.654;5.476;2023-04-24T05:57:25;100114.19;;;9.10;89.63
72921;BME280;61064;51.654;5.476;2023-04-24T05:59:51;100112.44;;;9.11;89.24
72921;BME280;61064;51.654;5.476;2023-04-24T06:02:17;100119.53;;;9.13;89.39
72921;BME280;61064;51.654;5.476;2023-04-24T06:04:42;100123.94;;;9.11;89.51
72921;BME280;61064;51.654;5.476;2023-04-24T06:07:10;100130.13;;;9.10;89.46
72921;BME280;61064;51.654;5.476;2023-04-24T06:09:36;100115.09;;;9.08;89.33
72921;BME280;61064;51.654;5.476;2023-04-24T06:12:02;100135.44;;;9.13;89.45
72921;BME280;61064;51.654;5.476;2023-04-24T06:14:27;100142.50;;;9.13;89.59
72921;BME280;61064;51.654;5.476;2023-04-24T06:16:53;100141.63;;;9.12;89.68
72921;BME280;61064;51.654;5.476;2023-04-24T06:19:18;100150.47;;;9.17;89.71
72921;BME280;61064;51.654;5.476;2023-04-24T06:21:43;100156.66;;;9.19;89.72
72921;BME280;61064;51.654;5.476;2023-04-24T06:24:09;100166.41;;;9.24;89.74
72921;BME280;61064;51.654;5.476;2023-04-24T06:26:35;100166.41;;;9.24;89.82
72921;BME280;61064;51.654;5.476;2023-04-24T06:29:00;100168.19;;;9.18;89.77
72921;BME280;61064;51.654;5.476;2023-04-24T06:31:26;100184.09;;;9.25;89.70
72921;BME280;61064;51.654;5.476;2023-04-24T06:33:51;100178.78;;;9.22;89.60
72921;BME280;61064;51.654;5.476;2023-04-24T06:36:17;100194.69;;;9.22;89.72
72921;BME280;61064;51.654;5.476;2023-04-24T06:38:42;100189.41;;;9.23;89.90
72921;BME280;61064;51.654;5.476;2023-04-24T06:41:09;100191.16;;;9.21;89.65
72921;BME280;61064;51.654;5.476;2023-04-24T06:43:34;100205.34;;;9.28;90.16
72921;BME280;61064;51.654;5.476;2023-04-24T06:46:00;100198.25;;;9.24;90.11
72921;BME280;61064;51.654;5.476;2023-04-24T06:48:25;100210.63;;;9.31;90.01
72921;BME280;61064;51.654;5.476;2023-04-24T06:50:52;100216.84;;;9.30;90.29
72921;BME280;61064;51.654;5.476;2023-04-24T06:53:17;100228.34;;;9.35;90.20
72921;BME280;61064;51.654;5.476;2023-04-24T06:55:43;100232.78;;;9.34;90.14
72921;BME280;61064;51.654;5.476;2023-04-24T06:58:10;100231.88;;;9.28;90.35
72921;BME280;61064;51.654;5.476;2023-04-24T07:00:35;100251.34;;;9.31;90.12
72921;BME280;61064;51.654;5.476;2023-04-24T07:03:01;100241.59;;;9.23;90.15
72921;BME280;61064;51.654;5.476;2023-04-24T07:05:27;100260.16;;;9.26;90.23
72921;BME280;61064;51.654;5.476;2023-04-24T07:07:53;100260.16;;;9.19;90.05
72921;BME280;61064;51.654;5.476;2023-04-24T07:10:18;100274.34;;;9.23;90.21
72921;BME280;61064;51.654;5.476;2023-04-24T07:12:48;100275.22;;;9.19;90.30
72921;BME280;61064;51.654;5.476;2023-04-24T07:15:16;100279.63;;;9.12;90.32
72921;BME280;61064;51.654;5.476;2023-04-24T07:17:41;100317.66;;;9.13;90.13
72921;BME280;61064;51.654;5.476;2023-04-24T07:20:11;100313.19;;;9.09;90.12
72921;BME280;61064;51.654;5.476;2023-04-24T07:22:37;100316.72;;;9.00;90.15
72921;BME280;61064;51.654;5.476;2023-04-24T07:25:03;100348.53;;;9.00;90.24
72921;BME280;61064;51.654;5.476;2023-04-24T07:27:30;100344.09;;;8.95;89.99
72921;BME280;61064;51.654;5.476;2023-04-24T07:29:55;100348.50;;;8.91;90.02
72921;BME280;61064;51.654;5.476;2023-04-24T07:32:20;100352.88;;;8.83;90.14
72921;BME280;61064;51.654;5.476;2023-04-24T07:34:45;100356.38;;;8.81;90.15
72921;BME280;61064;51.654;5.476;2023-04-24T07:37:11;100373.19;;;8.83;90.03
72921;BME280;61064;51.654;5.476;2023-04-24T07:39:36;100372.28;;;8.81;89.95
72921;BME280;61064;51.654;5.476;2023-04-24T07:42:02;100377.59;;;8.74;89.97
72921;BME280;61064;51.654;5.476;2023-04-24T07:44:31;100379.31;;;8.71;90.08
72921;BME280;61064;51.654;5.476;2023-04-24T07:46:57;100403.25;;;8.79;90.11
72921;BME280;61064;51.654;5.476;2023-04-24T07:49:25;100405.03;;;8.80;90.29
72921;BME280;61064;51.654;5.476;2023-04-24T07:51:51;100418.28;;;8.80;90.27
72921;BME280;61064;51.654;5.476;2023-04-24T07:54:16;100428.00;;;8.82;90.50
72921;BME280;61064;51.654;5.476;2023-04-24T07:56:43;100430.66;;;8.82;90.06
72921;BME280;61064;51.654;5.476;2023-04-24T07:59:09;100432.41;;;8.79;90.22
72921;BME280;61064;51.654;5.476;2023-04-24T08:01:35;100433.28;;;8.74;90.35
72921;BME280;61064;51.654;5.476;2023-04-24T08:04:01;100432.38;;;8.75;89.92
72921;BME280;61064;51.654;5.476;2023-04-24T08:06:30;100450.09;;;8.81;90.25
72921;BME280;61064;51.654;5.476;2023-04-24T08:08:59;100445.72;;;8.80;90.17
72921;BME280;61064;51.654;5.476;2023-04-24T08:11:25;100453.66;;;8.82;90.30
72921;BME280;61064;51.654;5.476;2023-04-24T08:13:51;100443.88;;;8.76;90.12
72921;BME280;61064;51.654;5.476;2023-04-24T08:16:16;100461.63;;;8.83;90.06
72921;BME280;61064;51.654;5.476;2023-04-24T08:18:42;100476.66;;;8.84;90.16
72921;BME280;61064;51.654;5.476;2023-04-24T08:21:07;100477.56;;;8.85;90.33
72921;BME280;61064;51.654;5.476;2023-04-24T08:23:33;100480.16;;;8.79;89.98
72921;BME280;61064;51.654;5.476;2023-04-24T08:25:58;100487.25;;;8.80;90.18
72921;BME280;61064;51.654;5.476;2023-04-24T08:28:24;100504.06;;;8.83;90.23
72921;BME280;61064;51.654;5.476;2023-04-24T08:30:49;100506.72;;;8.83;90.10
72921;BME280;61064;51.654;5.476;2023-04-24T08:33:22;100512.91;;;8.82;90.18
72921;BME280;61064;51.654;5.476;2023-04-24T08:35:48;100523.53;;;8.85;90.02
72921;BME280;61064;51.654;5.476;2023-04-24T08:38:13;100523.53;;;8.87;89.77
72921;BME280;61064;51.654;5.476;2023-04-24T08:40:39;100534.16;;;8.85;90.39
72921;BME280;61064;51.654;5.476;2023-04-24T08:43:05;100525.28;;;8.80;89.85
72921;BME280;61064;51.654;5.476;2023-04-24T08:45:32;100536.78;;;8.84;89.96
72921;BME280;61064;51.654;5.476;2023-04-24T08:47:58;100535.94;;;8.88;89.81
72921;BME280;61064;51.654;5.476;2023-04-24T08:50:24;100541.25;;;8.89;89.53
72921;BME280;61064;51.654;5.476;2023-04-24T08:52:50;100544.75;;;8.85;89.81
72921;BME280;61064;51.654;5.476;2023-04-24T08:55:18;100551.03;;;8.95;89.70
72921;BME280;61064;51.654;5.476;2023-04-24T08:57:53;100552.75;;;8.90;89.65
72921;BME280;61064;51.654;5.476;2023-04-24T09:00:22;100571.41;;;9.00;89.74
72921;BME280;61064;51.654;5.476;2023-04-24T09:02:52;100559.03;;;9.01;89.67
72921;BME280;61064;51.654;5.476;2023-04-24T09:05:18;100561.72;;;9.08;89.74
72921;BME280;61064;51.654;5.476;2023-04-24T09:07:56;100575.91;;;9.10;89.46
72921;BME280;61064;51.654;5.476;2023-04-24T09:10:23;100575.91;;;9.10;89.29
72921;BME280;61064;51.654;5.476;2023-04-24T09:12:51;100582.13;;;9.14;89.23
72921;BME280;61064;51.654;5.476;2023-04-24T09:15:18;100589.22;;;9.13;89.04
72921;BME280;61064;51.654;5.476;2023-04-24T09:17:44;100590.09;;;9.15;88.91
72921;BME280;61064;51.654;5.476;2023-04-24T09:20:10;100591.00;;;9.16;88.95
72921;BME280;61064;51.654;5.476;2023-04-24T09:22:36;100593.69;;;9.22;88.94
72921;BME280;61064;51.654;5.476;2023-04-24T09:25:07;100600.84;;;9.31;88.45
72921;BME280;61064;51.654;5.476;2023-04-24T09:27:33;100594.69;;;9.35;88.42
72921;BME280;61064;51.654;5.476;2023-04-24T09:30:00;100604.47;;;9.43;88.03
72921;BME280;61064;51.654;5.476;2023-04-24T09:32:26;100610.69;;;9.48;87.57
72921;BME280;61064;51.654;5.476;2023-04-24T09:37:39;100619.63;;;9.59;87.32
72921;BME280;61064;51.654;5.476;2023-04-24T09:40:25;100625.91;;;9.68;87.21
72921;BME280;61064;51.654;5.476;2023-04-24T09:42:55;100637.47;;;9.74;87.10
72921;BME280;61064;51.654;5.476;2023-04-24T09:45:22;100642.78;;;9.77;86.86
72921;BME280;61064;51.654;5.476;2023-04-24T09:47:51;100636.56;;;9.74;86.68
72921;BME280;61064;51.654;5.476;2023-04-24T09:50:21;100644.56;;;9.80;86.53
72921;BME280;61064;51.654;5.476;2023-04-24T09:52:57;100645.41;;;9.73;85.96
72921;BME280;61064;51.654;5.476;2023-04-24T09:55:25;100664.00;;;9.76;85.92
72921;BME280;61064;51.654;5.476;2023-04-24T09:57:58;100678.13;;;9.70;85.94
72921;BME280;61064;51.654;5.476;2023-04-24T10:00:30;100676.34;;;9.66;85.74
72921;BME280;61064;51.654;5.476;2023-04-24T10:03:00;100674.56;;;9.62;85.58
72921;BME280;61064;51.654;5.476;2023-04-24T10:05:33;100682.44;;;9.54;85.37
72921;BME280;61064;51.654;5.476;2023-04-24T10:08:06;100683.28;;;9.47;85.20
72921;BME280;61064;51.654;5.476;2023-04-24T10:10:40;100674.41;;;9.41;85.23
72921;BME280;61064;51.654;5.476;2023-04-24T10:13:07;100680.63;;;9.46;85.34
72921;BME280;61064;51.654;5.476;2023-04-24T10:15:35;100670.84;;;9.40;85.23
72921;BME280;61064;51.654;5.476;2023-04-24T10:18:04;100677.97;;;9.46;85.12
72921;BME280;61064;51.654;5.476;2023-04-24T10:20:30;100697.50;;;9.55;84.89
72921;BME280;61064;51.654;5.476;2023-04-24T10:22:56;100692.22;;;9.60;85.01
72921;BME280;61064;51.654;5.476;2023-04-24T10:25:26;100691.41;;;9.67;84.65
72921;BME280;61064;51.654;5.476;2023-04-24T10:27:53;100700.31;;;9.72;84.59
72921;BME280;61064;51.654;5.476;2023-04-24T10:30:19;100702.09;;;9.75;84.19
72921;BME280;61064;51.654;5.476;2023-04-24T10:32:45;100705.63;;;9.74;84.12
72921;BME280;61064;51.654;5.476;2023-04-24T10:35:12;100694.03;;;9.64;83.74
72921;BME280;61064;51.654;5.476;2023-04-24T10:37:44;100696.69;;;9.63;83.59
72921;BME280;61064;51.654;5.476;2023-04-24T10:40:12;100709.09;;;9.64;83.69
72921;BME280;61064;51.654;5.476;2023-04-24T10:42:41;100714.38;;;9.57;83.52
72921;BME280;61064;51.654;5.476;2023-04-24T10:45:19;100719.59;;;9.50;83.42
72921;BME280;61064;51.654;5.476;2023-04-24T10:47:53;100732.84;;;9.48;83.64
72921;BME280;61064;51.654;5.476;2023-04-24T10:50:19;100736.41;;;9.49;83.38
72921;BME280;61064;51.654;5.476;2023-04-24T10:52:48;100731.13;;;9.52;83.37
72921;BME280;61064;51.654;5.476;2023-04-24T10:55:16;100732.94;;;9.59;83.35
72921;BME280;61064;51.654;5.476;2023-04-24T10:58:03;100730.38;;;9.67;83.14
72921;BME280;61064;51.654;5.476;2023-04-24T11:00:29;100734.84;;;9.75;82.80
72921;BME280;61064;51.654;5.476;2023-04-24T11:02:55;100734.03;;;9.82;82.68
72921;BME280;61064;51.654;5.476;2023-04-24T11:05:22;100738.53;;;9.91;82.46
72921;BME280;61064;51.654;5.476;2023-04-24T11:08:10;100747.44;;;10.00;82.51
72921;BME280;61064;51.654;5.476;2023-04-24T11:10:54;100741.28;;;10.06;81.76
72921;BME280;61064;51.654;5.476;2023-04-24T11:13:21;100732.44;;;10.10;81.82
72921;BME280;61064;51.654;5.476;2023-04-24T11:22:00;100761.78;;;10.21;81.60
72921;BME280;61064;51.654;5.476;2023-04-24T11:27:37;100763.66;;;10.37;81.25
72921;BME280;61064;51.654;5.476;2023-04-24T11:37:30;100775.28;;;10.51;80.36
72921;BME280;61064;51.654;5.476;2023-04-24T11:39:58;100772.59;;;10.48;80.21
72921;BME280;61064;51.654;5.476;2023-04-24T11:42:24;100776.16;;;10.49;79.62
72921;BME280;61064;51.654;5.476;2023-04-24T11:44:52;100782.34;;;10.46;79.87
72921;BME280;61064;51.654;5.476;2023-04-24T11:47:18;100797.44;;;10.47;79.44
72921;BME280;61064;51.654;5.476;2023-04-24T11:49:43;100800.94;;;10.45;79.83
72921;BME280;61064;51.654;5.476;2023-04-24T11:52:08;100804.47;;;10.40;79.05
72921;BME280;61064;51.654;5.476;2023-04-24T11:54:34;100807.06;;;10.30;79.40
72921;BME280;61064;51.654;5.476;2023-04-24T11:57:04;100807.00;;;10.25;79.27
72921;BME280;61064;51.654;5.476;2023-04-24T11:59:29;100811.41;;;10.20;79.26
72921;BME280;61064;51.654;5.476;2023-04-24T12:01:54;100814.97;;;10.18;79.37
72921;BME280;61064;51.654;5.476;2023-04-24T12:04:20;100813.13;;;10.15;79.33
72921;BME280;61064;51.654;5.476;2023-04-24T12:07:02;100823.81;;;10.17;79.48
72921;BME280;61064;51.654;5.476;2023-04-24T12:09:28;100816.75;;;10.22;79.76
72921;BME280;61064;51.654;5.476;2023-04-24T12:11:56;100827.44;;;10.29;79.58
72921;BME280;61064;51.654;5.476;2023-04-24T12:14:22;100820.41;;;10.36;79.42
72921;BME280;61064;51.654;5.476;2023-04-24T12:16:48;100814.28;;;10.46;79.24
72921;BME280;61064;51.654;5.476;2023-04-24T12:19:20;100819.63;;;10.54;78.92
72921;BME280;61064;51.654;5.476;2023-04-24T12:21:59;100818.78;;;10.62;78.83
72921;BME280;61064;51.654;5.476;2023-04-24T12:24:24;100817.06;;;10.69;78.82
72921;BME280;61064;51.654;5.476;2023-04-24T12:26:50;100822.44;;;10.78;78.74
72921;BME280;61064;51.654;5.476;2023-04-24T12:29:20;100823.31;;;10.81;78.42
72921;BME280;61064;51.654;5.476;2023-04-24T12:31:45;100835.75;;;10.84;78.27
72921;BME280;61064;51.654;5.476;2023-04-24T12:34:21;100843.78;;;10.86;78.33
72921;BME280;61064;51.654;5.476;2023-04-24T12:36:47;100843.72;;;10.78;77.62
72921;BME280;61064;51.654;5.476;2023-04-24T12:39:20;100839.22;;;10.63;77.32
72921;BME280;61064;51.654;5.476;2023-04-24T12:41:58;100845.34;;;10.53;77.82
72921;BME280;61064;51.654;5.476;2023-04-24T12:44:34;100855.03;;;10.48;77.86
72921;BME280;61064;51.654;5.476;2023-04-24T12:47:01;100859.47;;;10.41;78.22
72921;BME280;61064;51.654;5.476;2023-04-24T12:49:27;100859.34;;;10.31;78.69
72921;BME280;61064;51.654;5.476;2023-04-24T12:51:53;100882.38;;;10.27;78.55
72921;BME280;61064;51.654;5.476;2023-04-24T12:54:19;100884.00;;;10.13;78.74
72921;BME280;61064;51.654;5.476;2023-04-24T12:56:44;100884.72;;;9.95;79.03
72921;BME280;61064;51.654;5.476;2023-04-24T12:59:11;100878.41;;;9.84;79.53
72921;BME280;61064;51.654;5.476;2023-04-24T13:01:36;100876.56;;;9.74;80.13
72921;BME280;61064;51.654;5.476;2023-04-24T13:04:02;100886.34;;;9.80;80.60
72921;BME280;61064;51.654;5.476;2023-04-24T13:06:27;100893.50;;;9.85;80.67
72921;BME280;61064;51.654;5.476;2023-04-24T13:08:52;100889.97;;;9.88;80.65
72921;BME280;61064;51.654;5.476;2023-04-24T13:11:20;100888.22;;;9.93;80.83
72921;BME280;61064;51.654;5.476;2023-04-24T13:13:46;100885.66;;;10.00;80.72
72921;BME280;61064;51.654;5.476;2023-04-24T13:16:12;100883.22;;;10.19;80.69